createdAt,value
2022-11-02T00:02:03.250Z,28.06
2022-11-02T00:04:53.196Z,28.05
2022-11-02T00:07:43.010Z,28.11
2022-11-02T00:10:32.411Z,28.29
2022-11-02T00:13:21.845Z,28.42
2022-11-02T00:16:15.432Z,28.43
2022-11-02T00:19:05.625Z,28.18
2022-11-02T00:21:57.869Z,28.18
2022-11-02T00:24:47.098Z,28.21
2022-11-02T00:27:37.509Z,28.24
2022-11-02T00:30:27.251Z,28.31
2022-11-02T00:33:16.289Z,28.45
2022-11-02T00:36:05.298Z,28.50
2022-11-02T00:38:55.421Z,28.54
2022-11-02T00:41:44.633Z,28.61
2022-11-02T00:44:34.637Z,28.63
2022-11-02T00:47:24.427Z,28.63
2022-11-02T00:50:15.153Z,28.67
2022-11-02T00:53:04.298Z,28.62
2022-11-02T00:55:54.864Z,28.67
2022-11-02T00:58:44.161Z,28.59
2022-11-02T01:01:33.968Z,28.59
2022-11-02T01:04:23.794Z,28.56
2022-11-02T01:07:18.645Z,28.48
2022-11-02T01:10:09.732Z,28.53
2022-11-02T01:12:58.694Z,28.38
2022-11-02T01:15:48.179Z,28.39
2022-11-02T01:18:37.343Z,28.48
2022-11-02T01:21:26.747Z,28.45
2022-11-02T01:24:18.699Z,28.60
2022-11-02T01:27:07.490Z,28.55
2022-11-02T01:29:56.670Z,28.61
2022-11-02T01:32:46.597Z,28.71
2022-11-02T01:35:39.141Z,28.77
2022-11-02T01:38:28.380Z,28.81
2022-11-02T01:41:18.981Z,28.82
2022-11-02T01:44:32.131Z,28.91
2022-11-02T01:47:27.148Z,28.92
2022-11-02T01:50:27.621Z,28.94
2022-11-02T01:53:16.851Z,29.06
2022-11-02T01:56:07.626Z,29.23
2022-11-02T01:59:01.696Z,29.21
2022-11-02T02:01:51.782Z,29.25
2022-11-02T02:04:41.613Z,29.22
2022-11-02T02:07:32.829Z,29.33
2022-11-02T02:10:21.790Z,29.39
2022-11-02T02:13:11.046Z,29.31
2022-11-02T02:16:20.727Z,29.53
2022-11-02T02:19:45.415Z,29.58
2022-11-02T02:22:47.849Z,29.57
2022-11-02T02:25:55.448Z,29.61
2022-11-02T02:29:15.729Z,29.67
2022-11-02T02:32:13.681Z,29.71
2022-11-02T02:35:35.631Z,29.81
2022-11-02T02:38:36.349Z,29.74
2022-11-02T02:41:40.397Z,29.80
2022-11-02T02:44:32.991Z,29.83
2022-11-02T02:47:25.321Z,29.88
2022-11-02T02:50:23.541Z,29.88
2022-11-02T02:53:14.098Z,29.92
2022-11-02T02:56:07.093Z,29.85
2022-11-02T02:59:06.550Z,30.01
2022-11-02T03:01:56.794Z,30.04
2022-11-02T03:04:46.607Z,30.08
2022-11-02T03:07:36.179Z,30.13
2022-11-02T03:10:51.714Z,30.23
2022-11-02T03:13:52.279Z,30.23
2022-11-02T03:17:13.345Z,30.23
2022-11-02T03:20:35.073Z,30.17
2022-11-02T03:23:32.412Z,30.20
2022-11-02T03:26:44.671Z,30.26
2022-11-02T03:30:00.967Z,30.42
2022-11-02T03:33:10.330Z,30.45
2022-11-02T03:36:09.588Z,30.41
2022-11-02T03:39:03.194Z,30.54
2022-11-02T03:41:53.071Z,30.79
2022-11-02T03:44:43.468Z,30.89
2022-11-02T03:47:35.298Z,31.13
2022-11-02T03:50:28.917Z,31.32
2022-11-02T03:53:42.016Z,31.44
2022-11-02T03:56:39.780Z,31.59
2022-11-02T04:03:45.953Z,31.65
2022-11-02T04:06:35.752Z,31.71
2022-11-02T04:09:29.698Z,31.78
2022-11-02T04:12:38.837Z,31.83
2022-11-02T04:15:29.444Z,31.92
2022-11-02T04:18:37.011Z,32.00
2022-11-02T04:21:26.441Z,31.98
2022-11-02T04:24:35.522Z,32.09
2022-11-02T04:27:24.975Z,32.16
2022-11-02T04:30:17.335Z,32.15
2022-11-02T04:33:24.937Z,32.24
2022-11-02T04:36:24.208Z,32.27
2022-11-02T04:39:17.651Z,32.36
2022-11-02T04:42:07.003Z,32.46
2022-11-02T04:45:04.090Z,32.50
2022-11-02T04:48:13.680Z,32.59
2022-11-02T04:51:02.629Z,32.58
2022-11-02T04:53:54.708Z,32.60
2022-11-02T04:56:45.148Z,32.67
2022-11-02T04:59:34.893Z,32.74
2022-11-02T05:02:25.240Z,32.78
2022-11-02T05:05:14.472Z,32.76
2022-11-02T05:08:05.028Z,32.89
2022-11-02T05:10:58.473Z,32.91
2022-11-02T05:13:49.644Z,32.95
2022-11-02T05:16:41.010Z,33.07
2022-11-02T05:19:32.583Z,33.17
2022-11-02T05:22:24.800Z,33.17
2022-11-02T05:25:15.578Z,33.21
2022-11-02T05:28:04.503Z,33.28
2022-11-02T05:30:54.488Z,33.30
2022-11-02T05:33:43.928Z,33.36
2022-11-02T05:36:36.623Z,33.44
2022-11-02T05:39:25.835Z,33.46
2022-11-02T05:42:15.951Z,33.56
2022-11-02T05:45:05.440Z,33.59
2022-11-02T05:47:54.775Z,33.64
2022-11-02T05:50:43.176Z,33.69
2022-11-02T05:53:34.666Z,33.60
2022-11-02T05:56:25.185Z,33.65
2022-11-02T05:59:14.352Z,33.69
2022-11-02T06:02:03.731Z,33.63
2022-11-02T06:04:53.273Z,33.60
2022-11-02T06:07:42.801Z,33.62
2022-11-02T06:10:32.632Z,33.37
2022-11-02T06:13:21.879Z,33.27
2022-11-02T06:16:12.335Z,33.04
2022-11-02T06:19:01.165Z,33.02
2022-11-02T06:21:50.451Z,33.15
2022-11-02T06:24:39.678Z,32.80
2022-11-02T06:27:28.287Z,32.75
2022-11-02T06:30:17.502Z,32.73
2022-11-02T06:33:07.360Z,32.70
2022-11-02T06:35:57.542Z,32.66
2022-11-02T06:38:47.038Z,32.61
2022-11-02T06:41:36.303Z,32.58
2022-11-02T06:44:25.520Z,32.56
2022-11-02T06:47:14.920Z,32.45
2022-11-02T06:50:09.308Z,32.46
2022-11-02T06:52:58.173Z,32.46
2022-11-02T06:55:47.789Z,32.44
2022-11-02T06:58:36.779Z,32.39
2022-11-02T07:01:28.913Z,32.37
2022-11-02T07:04:18.158Z,32.35
2022-11-02T07:07:07.522Z,32.32
2022-11-02T07:09:59.046Z,32.36
2022-11-02T07:12:48.164Z,32.32
2022-11-02T07:15:38.173Z,32.28
2022-11-02T07:18:28.427Z,32.27
2022-11-02T07:24:09.202Z,32.25
2022-11-02T07:26:59.317Z,32.19
2022-11-02T07:29:48.551Z,32.16
2022-11-02T07:32:44.869Z,32.15
2022-11-02T07:35:35.209Z,32.11
2022-11-02T07:38:24.056Z,32.11
2022-11-02T07:41:13.114Z,32.08
2022-11-02T07:44:02.637Z,32.10
2022-11-02T07:46:55.597Z,32.09
2022-11-02T07:49:44.536Z,32.07
2022-11-02T07:52:33.723Z,32.09
2022-11-02T07:55:30.812Z,32.04
2022-11-02T07:58:20.760Z,32.05
2022-11-02T08:01:10.474Z,32.05
2022-11-02T08:03:59.803Z,32.02
2022-11-02T08:06:49.427Z,32.00
2022-11-02T08:09:38.066Z,31.95
2022-11-02T08:12:27.845Z,31.99
2022-11-02T08:15:16.995Z,31.99
2022-11-02T08:18:13.711Z,31.95
2022-11-02T08:21:03.088Z,31.94
2022-11-02T08:23:58.221Z,31.94
2022-11-02T08:26:49.681Z,31.92
2022-11-02T08:29:43.520Z,31.92
2022-11-02T08:32:32.892Z,31.93
2022-11-02T08:35:22.632Z,31.90
2022-11-02T08:38:11.645Z,31.90
2022-11-02T08:41:01.920Z,31.89
2022-11-02T08:43:50.755Z,31.89
2022-11-02T08:46:39.592Z,32.18
2022-11-02T08:49:28.982Z,31.90
2022-11-02T08:52:20.861Z,31.88
2022-11-02T08:55:10.268Z,31.87
2022-11-02T08:58:02.216Z,31.71
2022-11-02T09:00:54.331Z,31.67
2022-11-02T09:03:44.047Z,31.78
2022-11-02T09:06:33.732Z,31.72
2022-11-02T09:09:22.713Z,31.71
2022-11-02T09:12:11.748Z,31.71
2022-11-02T09:15:04.352Z,31.76
2022-11-02T09:17:54.984Z,31.73
2022-11-02T09:20:43.841Z,31.76
2022-11-02T09:23:32.955Z,31.73
2022-11-02T09:26:22.048Z,31.74
2022-11-02T09:29:11.547Z,31.72
2022-11-02T09:32:00.939Z,31.74
2022-11-02T09:34:51.508Z,31.70
2022-11-02T09:37:40.551Z,31.71
2022-11-02T09:40:53.901Z,31.69
2022-11-02T09:43:58.287Z,31.64
2022-11-02T09:46:53.264Z,31.61
2022-11-02T09:50:00.044Z,31.61
2022-11-02T09:52:55.698Z,31.53
2022-11-02T09:55:56.711Z,31.58
2022-11-02T09:58:49.255Z,31.59
2022-11-02T10:02:00.297Z,31.57
2022-11-02T10:05:10.262Z,31.43
2022-11-02T10:08:13.680Z,31.41
2022-11-02T10:11:29.018Z,31.35
2022-11-02T10:14:35.607Z,31.36
2022-11-02T10:17:30.977Z,31.38
2022-11-02T10:20:31.214Z,31.36
2022-11-02T10:23:27.516Z,31.32
2022-11-02T10:26:24.135Z,31.28
2022-11-02T10:29:28.238Z,31.29
2022-11-02T10:32:18.009Z,31.28
2022-11-02T10:35:45.735Z,31.25
2022-11-02T10:39:18.035Z,31.26
2022-11-02T10:42:22.666Z,31.22
2022-11-02T10:45:17.850Z,31.22
2022-11-02T10:48:36.595Z,31.23
2022-11-02T10:51:25.828Z,31.28
2022-11-02T10:54:20.636Z,31.30
2022-11-02T10:57:16.085Z,31.27
2022-11-02T11:00:30.451Z,31.38
2022-11-02T11:03:20.855Z,31.26
2022-11-02T11:06:12.170Z,31.37
2022-11-02T11:09:13.648Z,31.37
2022-11-02T11:12:23.095Z,31.40
2022-11-02T11:21:51.008Z,31.37
2022-11-02T11:24:40.121Z,31.33
2022-11-02T11:27:29.532Z,31.38
2022-11-02T11:30:58.854Z,31.34
2022-11-02T11:34:01.099Z,31.32
2022-11-02T11:36:50.251Z,31.27
2022-11-02T11:39:41.952Z,31.29
2022-11-02T11:42:35.270Z,31.27
2022-11-02T11:45:28.252Z,31.23
2022-11-02T11:48:26.373Z,31.24
2022-11-02T11:51:30.392Z,31.15
2022-11-02T11:54:25.578Z,31.18
2022-11-02T11:57:34.711Z,31.16
2022-11-02T12:00:29.252Z,31.10
2022-11-02T12:03:18.353Z,31.12
2022-11-02T12:06:19.111Z,31.08
2022-11-02T12:09:26.747Z,31.06
2022-11-02T12:12:45.302Z,31.03
2022-11-02T12:15:53.191Z,31.05
2022-11-02T12:19:29.862Z,31.00
2022-11-02T12:22:42.818Z,30.98
2022-11-02T12:25:50.057Z,30.99
2022-11-02T12:28:46.967Z,30.97
2022-11-02T12:31:43.709Z,30.93
2022-11-02T12:35:27.188Z,30.94
2022-11-02T12:38:14.329Z,30.89
2022-11-02T12:41:31.581Z,30.89
2022-11-02T12:44:42.030Z,30.86
2022-11-02T12:48:07.617Z,30.82
2022-11-02T12:51:34.186Z,30.79
2022-11-02T12:54:41.609Z,30.78
2022-11-02T12:57:54.888Z,30.75
2022-11-02T13:00:53.687Z,30.70
2022-11-02T13:04:05.775Z,30.68
2022-11-02T13:07:13.639Z,30.58
2022-11-02T13:10:26.973Z,30.64
2022-11-02T13:16:58.882Z,30.63
2022-11-02T13:20:06.767Z,30.63
2022-11-02T13:27:02.170Z,30.63
2022-11-02T13:30:20.891Z,30.59
2022-11-02T13:37:04.157Z,30.59
2022-11-02T13:40:01.815Z,30.58
2022-11-02T13:43:14.752Z,30.61
2022-11-02T13:46:46.197Z,30.58
2022-11-02T13:49:48.679Z,30.54
2022-11-02T13:52:50.505Z,30.55
2022-11-02T13:56:25.435Z,30.55
2022-11-02T13:59:43.110Z,30.53
2022-11-02T14:02:40.116Z,30.52
2022-11-02T14:05:47.554Z,30.49
2022-11-02T14:09:00.695Z,30.49
2022-11-02T14:12:24.492Z,30.52
2022-11-02T14:15:41.785Z,30.52
2022-11-02T14:18:38.264Z,30.49
2022-11-02T14:22:13.305Z,30.46
2022-11-02T14:25:20.483Z,30.43
2022-11-02T14:28:29.838Z,30.43
2022-11-02T14:31:43.621Z,30.41
2022-11-02T14:38:33.731Z,30.39
2022-11-02T14:41:59.712Z,30.38
2022-11-02T14:45:20.601Z,30.37
2022-11-02T14:48:25.710Z,30.34
2022-11-02T14:51:50.590Z,30.20
2022-11-02T14:55:15.553Z,30.24
2022-11-02T14:58:14.807Z,30.31
2022-11-02T15:01:10.149Z,30.25
2022-11-02T15:04:23.801Z,30.22
2022-11-02T15:07:50.433Z,30.24
2022-11-02T15:10:56.430Z,30.22
2022-11-02T15:13:55.929Z,30.22
2022-11-02T15:16:50.235Z,30.22
2022-11-02T15:19:59.421Z,30.18
2022-11-02T15:26:42.245Z,30.19
2022-11-02T15:29:49.223Z,30.17
2022-11-02T15:33:01.239Z,30.17
2022-11-02T15:35:58.407Z,30.16
2022-11-02T15:38:57.062Z,30.14
2022-11-02T15:42:34.219Z,30.16
2022-11-02T15:46:01.152Z,30.16
2022-11-02T15:49:17.457Z,30.13
2022-11-02T15:52:15.370Z,30.11
2022-11-02T15:55:22.058Z,30.11
2022-11-02T15:58:43.067Z,30.10
2022-11-02T16:01:32.804Z,30.09
2022-11-02T16:04:23.421Z,30.09
2022-11-02T16:07:16.716Z,30.04
2022-11-02T16:10:24.005Z,30.05
2022-11-02T16:13:18.992Z,29.98
2022-11-02T16:16:09.717Z,30.01
2022-11-02T16:18:59.392Z,30.00
2022-11-02T16:21:49.889Z,29.97
2022-11-02T16:24:44.661Z,29.96
2022-11-02T16:27:33.476Z,29.89
2022-11-02T16:30:24.272Z,29.95
2022-11-02T16:33:14.001Z,29.94
2022-11-02T16:36:07.337Z,29.91
2022-11-02T16:39:32.978Z,29.93
2022-11-02T16:42:26.298Z,29.92
2022-11-02T16:45:37.111Z,29.92
2022-11-02T16:48:31.786Z,29.89
2022-11-02T16:51:21.136Z,29.89
2022-11-02T16:54:31.360Z,29.87
2022-11-02T16:57:23.745Z,29.88
2022-11-02T17:00:22.835Z,29.86
2022-11-02T17:03:16.535Z,29.87
2022-11-02T17:06:08.254Z,29.87
2022-11-02T17:08:58.722Z,29.85
2022-11-02T17:11:47.691Z,29.76
2022-11-02T17:14:36.937Z,29.68
2022-11-02T17:17:27.322Z,29.67
2022-11-02T17:20:17.881Z,29.66
2022-11-02T17:23:09.157Z,29.66
2022-11-02T17:26:26.503Z,29.64
2022-11-02T17:29:27.630Z,29.64
2022-11-02T17:32:17.521Z,29.60
2022-11-02T17:35:08.188Z,29.61
2022-11-02T17:37:59.169Z,29.68
2022-11-02T17:40:53.510Z,29.70
2022-11-02T17:43:42.941Z,29.69
2022-11-02T17:46:34.679Z,29.67
2022-11-02T17:49:23.742Z,29.68
2022-11-02T17:52:15.782Z,29.60
2022-11-02T17:55:05.128Z,29.46
2022-11-02T17:57:56.084Z,29.49
2022-11-02T18:00:46.160Z,29.43
2022-11-02T18:03:35.813Z,29.42
2022-11-02T18:06:25.438Z,29.38
2022-11-02T18:09:20.609Z,29.33
2022-11-02T18:12:17.958Z,29.35
2022-11-02T18:15:22.366Z,29.31
2022-11-02T18:18:11.371Z,29.26
2022-11-02T18:21:00.528Z,29.22
2022-11-02T18:23:49.914Z,29.23
2022-11-02T18:26:42.750Z,29.21
2022-11-02T18:29:35.779Z,29.20
2022-11-02T18:32:24.818Z,29.21
2022-11-02T18:35:16.962Z,29.15
2022-11-02T18:38:06.514Z,29.16
2022-11-02T18:41:30.789Z,29.15
2022-11-02T18:44:19.668Z,29.11
2022-11-02T18:47:10.398Z,29.08
2022-11-02T18:50:01.100Z,29.08
2022-11-02T18:52:52.326Z,29.06
2022-11-02T18:55:42.543Z,29.03
2022-11-02T18:58:32.254Z,29.06
2022-11-02T19:01:22.405Z,28.98
2022-11-02T19:04:17.181Z,28.98
2022-11-02T19:07:25.363Z,28.94
2022-11-02T19:10:17.708Z,28.97
2022-11-02T19:13:07.162Z,28.95
2022-11-02T19:15:56.433Z,28.92
2022-11-02T19:18:46.421Z,28.92
2022-11-02T19:21:36.472Z,28.90
2022-11-02T19:24:26.297Z,28.91
2022-11-02T19:27:24.394Z,28.88
2022-11-02T19:30:14.721Z,28.91
2022-11-02T19:33:04.097Z,28.85
2022-11-02T19:35:57.923Z,28.83
2022-11-02T19:39:05.639Z,28.83
2022-11-02T19:41:55.403Z,28.84
2022-11-02T19:44:44.521Z,28.80
2022-11-02T19:47:45.513Z,28.81
2022-11-02T19:50:34.842Z,28.76
2022-11-02T19:53:24.113Z,28.76
2022-11-02T19:56:15.038Z,28.74
2022-11-02T19:59:05.131Z,28.68
2022-11-02T20:01:54.293Z,28.65
2022-11-02T20:04:48.718Z,28.68
2022-11-02T20:07:37.930Z,28.66
2022-11-02T20:10:27.654Z,28.69
2022-11-02T20:13:16.719Z,28.65
2022-11-02T20:16:06.810Z,28.66
2022-11-02T20:18:56.976Z,28.66
2022-11-02T20:21:45.996Z,28.67
2022-11-02T20:24:34.867Z,28.59
2022-11-02T20:27:24.230Z,28.57
2022-11-02T20:30:23.295Z,28.60
2022-11-02T20:33:13.031Z,28.57
2022-11-02T20:36:05.947Z,28.61
2022-11-02T20:38:55.285Z,28.59
2022-11-02T20:41:44.981Z,28.60
2022-11-02T20:44:34.972Z,28.56
2022-11-02T20:47:24.562Z,28.58
2022-11-02T20:50:16.625Z,28.54
2022-11-02T20:53:06.868Z,28.57
2022-11-02T20:55:59.995Z,28.54
2022-11-02T20:58:55.686Z,28.56
2022-11-02T21:01:44.929Z,28.51
2022-11-02T21:04:34.719Z,28.51
2022-11-02T21:07:26.612Z,28.52
2022-11-02T21:10:16.712Z,28.49
2022-11-02T21:13:23.933Z,28.48
2022-11-02T21:16:13.303Z,28.48
2022-11-02T21:19:02.736Z,28.47
2022-11-02T21:21:56.562Z,28.40
2022-11-02T21:24:49.039Z,28.43
2022-11-02T21:27:38.015Z,28.40
2022-11-02T21:30:27.468Z,28.42
2022-11-02T21:33:17.016Z,28.41
2022-11-02T21:36:06.543Z,28.41
2022-11-02T21:38:56.851Z,28.37
2022-11-02T21:41:46.207Z,28.24
2022-11-02T21:44:35.359Z,28.21
2022-11-02T21:47:24.758Z,28.21
2022-11-02T21:50:13.628Z,28.20
2022-11-02T21:53:06.627Z,28.20
2022-11-02T21:56:04.045Z,28.20
2022-11-02T21:58:53.514Z,28.31
2022-11-02T22:01:51.046Z,28.26
2022-11-02T22:04:42.669Z,28.30
2022-11-02T22:07:54.835Z,28.28
2022-11-02T22:10:48.371Z,28.26
2022-11-02T22:13:40.065Z,28.27
2022-11-02T22:16:35.627Z,28.31
2022-11-02T22:19:26.557Z,28.29
2022-11-02T22:22:16.952Z,28.27
2022-11-02T22:25:07.404Z,28.25
2022-11-02T22:28:01.326Z,28.26
2022-11-02T22:30:51.222Z,28.26
2022-11-02T22:33:41.245Z,28.27
2022-11-02T22:36:32.669Z,28.22
2022-11-02T22:39:22.132Z,28.25
2022-11-02T22:42:11.626Z,28.23
2022-11-02T22:45:01.773Z,28.24
2022-11-02T22:47:51.092Z,28.25
2022-11-02T22:50:43.037Z,28.27
2022-11-02T22:53:32.016Z,28.26
2022-11-02T22:56:23.844Z,28.26
2022-11-02T22:59:14.071Z,28.27
2022-11-02T23:02:05.884Z,28.28
2022-11-02T23:04:56.343Z,28.29
2022-11-02T23:07:46.003Z,28.30
2022-11-02T23:10:56.278Z,28.27
2022-11-02T23:13:46.898Z,28.29
2022-11-02T23:16:38.528Z,28.30
2022-11-02T23:19:30.293Z,28.32
2022-11-02T23:22:34.590Z,28.32
2022-11-02T23:25:23.931Z,28.36
2022-11-02T23:28:31.061Z,28.36
2022-11-02T23:31:38.064Z,28.36
2022-11-02T23:34:29.976Z,28.36
2022-11-02T23:37:20.279Z,28.43
2022-11-02T23:40:10.089Z,28.46
2022-11-02T23:42:59.060Z,28.48
2022-11-02T23:45:48.690Z,28.50
2022-11-02T23:48:39.263Z,28.50
2022-11-02T23:51:51.385Z,28.55
2022-11-02T23:54:58.850Z,28.54
2022-11-02T23:57:48.464Z,28.58
